createdAt,value
2016-04-03T15:31:53.441Z,155
2016-04-03T15:32:54.037Z,180
2016-04-03T15:33:54.057Z,165
2016-04-03T15:34:53.996Z,145
2016-04-03T15:35:53.968Z,145
2016-04-03T15:36:53.955Z,160
2016-04-03T15:37:53.927Z,180
2016-04-03T15:38:53.898Z,185
2016-04-03T15:39:53.712Z,190
2016-04-03T15:40:54.200Z,180
2016-04-03T15:41:53.859Z,160
2016-04-03T15:42:53.830Z,145
2016-04-03T15:43:53.818Z,145
2016-04-03T15:44:53.790Z,150
2016-04-03T15:45:53.791Z,150
2016-04-03T15:46:53.763Z,150
2016-04-03T15:47:53.750Z,145
2016-04-03T15:48:53.722Z,140
2016-04-03T15:49:53.708Z,135
2016-04-03T15:50:53.695Z,135
2016-04-03T15:51:53.527Z,135
2016-04-03T15:52:53.685Z,130
2016-04-03T15:53:53.657Z,130
2016-04-03T15:54:53.644Z,130
2016-04-03T15:55:53.631Z,130
2016-04-03T15:56:53.618Z,125
2016-04-03T15:57:53.589Z,125
2016-04-03T15:58:53.560Z,120
2016-04-03T15:59:53.563Z,120
2016-04-03T16:00:53.552Z,120
2016-04-03T16:01:53.538Z,115
2016-04-03T16:02:53.524Z,120
2016-04-03T16:03:53.512Z,130
2016-04-03T16:04:53.499Z,135
2016-04-03T16:05:53.471Z,135
2016-04-03T16:06:53.458Z,130
2016-04-03T16:07:53.445Z,130
2016-04-03T16:08:53.432Z,125
2016-04-03T16:09:53.435Z,120
2016-04-03T16:10:53.421Z,115
2016-04-03T16:11:53.393Z,105
2016-04-03T16:12:53.395Z,105
2016-04-03T16:13:53.367Z,105
2016-04-03T16:14:53.354Z,110
2016-04-03T16:15:53.326Z,110
2016-04-03T16:16:53.312Z,110
2016-04-03T16:17:53.315Z,110
2016-04-03T16:18:53.287Z,110
2016-04-03T16:19:53.289Z,105
2016-04-03T16:20:53.276Z,105
2016-04-03T16:21:53.278Z,100
2016-04-03T16:22:53.267Z,95
2016-04-03T16:23:53.222Z,95
2016-04-03T16:24:53.224Z,90
2016-04-03T16:25:53.196Z,90
2016-04-03T16:26:53.183Z,80
2016-04-03T16:27:53.155Z,75
2016-04-03T16:28:53.189Z,75
2016-04-03T16:29:53.144Z,70
2016-04-03T16:30:53.116Z,65
2016-04-03T16:31:53.135Z,65
2016-04-03T16:32:53.090Z,60
2016-04-03T16:33:53.077Z,55
2016-04-03T16:34:53.080Z,55
2016-04-03T16:35:53.051Z,55
2016-04-03T16:36:53.038Z,55
2016-04-03T16:37:53.026Z,50
2016-04-03T16:38:53.028Z,50
2016-04-03T16:39:52.984Z,50
2016-04-03T16:40:52.987Z,50
2016-04-03T16:41:52.957Z,50
2016-04-03T16:42:52.945Z,55
2016-04-03T16:43:52.948Z,55
2016-04-03T16:44:52.920Z,50
2016-04-03T16:45:52.937Z,50
2016-04-03T16:46:52.893Z,55
2016-04-03T16:47:52.864Z,55
2016-04-03T16:48:52.868Z,55
2016-04-03T16:49:52.854Z,55
2016-04-03T16:50:52.826Z,55
2016-04-03T16:51:52.828Z,50
2016-04-03T16:52:52.800Z,50
2016-04-03T16:53:52.802Z,50
2016-04-03T16:54:52.789Z,45
2016-04-03T16:55:52.761Z,40
2016-04-03T16:56:52.764Z,35
2016-04-03T16:57:52.736Z,35
2016-04-03T16:58:52.722Z,30
2016-04-03T16:59:52.710Z,30
2016-04-03T17:00:52.713Z,30
2016-04-03T17:01:52.684Z,30
2016-04-03T17:02:52.686Z,30
2016-04-03T17:03:52.658Z,35
2016-04-03T17:04:52.613Z,30
2016-04-03T17:05:52.601Z,30
2016-04-03T17:06:52.604Z,30
2016-04-03T17:07:52.449Z,30
2016-04-03T17:08:52.577Z,30
2016-04-03T17:09:52.565Z,25
2016-04-03T17:10:52.536Z,25
2016-04-03T17:11:52.539Z,25
2016-04-03T17:12:52.526Z,25
2016-04-03T17:13:52.498Z,25
2016-04-03T17:14:52.515Z,20
2016-04-03T17:15:52.456Z,15
2016-04-03T17:16:52.505Z,15
2016-04-03T17:17:52.445Z,15
2016-04-03T17:18:52.417Z,20
2016-04-03T17:19:52.935Z,20
2016-04-03T17:20:52.391Z,20
2016-04-03T17:21:52.409Z,20
2016-04-03T17:22:52.380Z,20
2016-04-03T17:23:52.367Z,20
2016-04-03T17:24:52.355Z,20
2016-04-03T17:25:52.341Z,20
2016-04-03T17:26:52.297Z,20
2016-04-03T17:27:52.331Z,20
2016-04-03T17:28:52.288Z,20
2016-04-03T17:29:52.258Z,20
2016-04-03T17:30:52.246Z,20
2016-04-03T17:31:52.217Z,20
2016-04-03T17:32:52.219Z,15
2016-04-03T17:33:52.222Z,15
2016-04-03T17:34:52.194Z,10
2016-04-03T17:35:52.149Z,10
2016-04-03T17:36:52.137Z,10
2016-04-03T17:37:52.171Z,10
2016-04-03T17:38:52.127Z,10
2016-04-03T17:39:52.083Z,10
2016-04-03T17:40:52.101Z,15
2016-04-03T17:41:52.057Z,15
2016-04-03T17:42:52.090Z,10
2016-04-03T17:43:52.062Z,10
2016-04-03T17:44:52.018Z,10
2016-04-03T17:45:52.004Z,10
2016-04-03T17:46:52.023Z,15
2016-04-03T17:47:51.995Z,15
2016-04-03T17:48:51.982Z,10
2016-04-03T17:49:51.938Z,10
2016-04-03T17:50:51.925Z,10
2016-04-03T17:51:51.943Z,10
2016-04-03T17:52:51.915Z,10
2016-04-03T17:53:51.886Z,5
2016-04-03T17:54:51.873Z,5
2016-04-03T17:55:51.844Z,5
2016-04-03T17:56:51.847Z,5
2016-04-03T17:57:51.833Z,5
2016-04-03T17:58:51.805Z,5
2016-04-03T17:59:51.809Z,5
2016-04-03T18:00:51.764Z,0
2016-04-03T18:01:51.752Z,0
2016-04-03T18:02:51.582Z,0
2016-04-03T18:03:51.725Z,0
2016-04-03T18:04:51.712Z,0
2016-04-03T18:05:51.683Z,0
2016-04-03T18:06:51.671Z,0
2016-04-03T18:07:51.689Z,0
2016-04-03T18:08:51.660Z,0
2016-04-03T18:09:51.632Z,0
2016-04-03T18:10:51.619Z,0
2016-04-03T18:11:51.591Z,0
2016-04-03T18:12:51.593Z,0
2016-04-03T18:13:51.565Z,0
2016-04-03T18:14:51.567Z,0
2016-04-03T18:15:51.570Z,0
2016-04-03T18:16:51.526Z,0
2016-04-03T18:17:51.513Z,0
2016-04-03T18:18:51.344Z,0
2016-04-03T18:19:51.471Z,0
2016-04-03T18:20:51.474Z,0
2016-04-03T18:21:51.445Z,0
2016-04-03T18:22:51.433Z,0
2016-04-03T18:23:51.420Z,0
2016-04-03T18:24:51.392Z,0
2016-04-03T18:25:51.379Z,0
2016-04-03T18:26:51.381Z,0
2016-04-03T18:27:51.353Z,0
2016-04-03T18:28:51.324Z,0
2016-04-03T18:29:51.311Z,0
2016-04-03T18:30:51.304Z,0
2016-04-03T18:31:51.275Z,0
2016-04-03T18:32:51.278Z,0
2016-04-03T18:33:51.234Z,0
2016-04-03T18:34:51.220Z,0
2016-04-03T18:35:51.208Z,0
2016-04-03T18:36:51.194Z,0
2016-04-03T18:37:51.181Z,0
2016-04-03T18:38:51.184Z,0
2016-04-03T18:39:51.172Z,0
2016-04-03T18:40:51.127Z,0
2016-04-03T18:41:51.115Z,0
2016-04-03T18:42:51.117Z,0
2016-04-03T18:43:50.933Z,0
2016-04-03T18:44:51.060Z,0
2016-04-03T18:45:51.048Z,0
2016-04-03T18:46:51.049Z,0
2016-04-03T18:47:51.022Z,0
2016-04-03T18:48:51.008Z,0
2016-04-03T18:49:50.980Z,0
2016-04-03T18:50:50.967Z,0
2016-04-03T18:51:50.954Z,0
2016-04-03T18:52:50.926Z,0
2016-04-03T18:53:50.928Z,0
2016-04-03T18:54:50.915Z,0
2016-04-03T18:55:50.902Z,0
2016-04-03T18:56:50.889Z,0
2016-04-03T18:57:50.876Z,0
2016-04-03T18:58:50.863Z,0
2016-04-03T18:59:50.820Z,0
2016-04-03T19:00:50.837Z,0
2016-04-03T19:01:50.793Z,0
2016-04-03T19:02:50.968Z,0
2016-04-03T19:03:50.768Z,0
2016-04-03T19:04:50.786Z,0
2016-04-03T19:05:50.726Z,0
2016-04-03T19:06:50.714Z,0
2016-04-03T19:07:50.700Z,0
2016-04-03T19:08:50.719Z,0
2016-04-03T19:09:50.675Z,0
2016-04-03T19:10:50.661Z,0
2016-04-03T19:11:50.648Z,0
2016-04-03T19:12:50.619Z,0
2016-04-03T19:13:50.608Z,0
2016-04-03T19:14:50.579Z,0
2016-04-03T19:15:50.580Z,0
2016-04-03T19:16:50.553Z,0
2016-04-03T19:17:50.539Z,0
2016-04-03T19:18:50.511Z,0
2016-04-03T19:19:50.498Z,0
2016-04-03T19:20:50.486Z,0
2016-04-03T19:21:50.472Z,0
2016-04-03T19:22:50.444Z,0
2016-04-03T19:23:50.430Z,0
2016-04-03T19:24:50.418Z,0
2016-04-03T19:25:50.405Z,0
2016-04-03T19:26:50.393Z,0
2016-04-03T19:27:50.379Z,0
2016-04-03T19:28:50.351Z,0
2016-04-03T19:29:50.321Z,0
2016-04-03T19:30:50.340Z,0
2016-04-03T19:31:50.327Z,0
2016-04-03T19:32:50.299Z,0
2016-04-03T19:33:50.270Z,0
2016-04-03T19:34:50.242Z,0
2016-04-03T19:35:50.229Z,0
2016-04-03T19:36:50.200Z,0
2016-04-03T19:37:50.234Z,0
2016-04-03T19:38:50.190Z,0
2016-04-03T19:39:50.161Z,0
2016-04-03T19:40:50.164Z,0
2016-04-03T19:41:50.151Z,0
2016-04-03T19:42:50.106Z,0
2016-04-03T19:43:50.094Z,0
2016-04-03T19:44:50.128Z,0
2016-04-03T19:45:50.100Z,0
2016-04-03T19:46:50.039Z,0
2016-04-03T19:47:50.027Z,0
2016-04-03T19:48:50.013Z,0
2016-04-03T19:49:50.000Z,0
2016-04-03T19:50:49.972Z,0
2016-04-03T19:51:49.960Z,0
2016-04-03T19:52:49.977Z,0
2016-04-03T19:53:49.933Z,0
2016-04-03T19:54:49.905Z,0
2016-04-03T19:55:49.891Z,0
2016-04-03T19:56:49.894Z,0
2016-04-03T19:57:49.882Z,0
2016-04-03T19:58:49.853Z,0
2016-04-03T19:59:49.840Z,0
2016-04-03T20:00:49.827Z,0
2016-04-03T20:01:49.829Z,0
2016-04-03T20:02:49.786Z,0
2016-04-03T20:03:49.757Z,0
2016-04-03T20:04:49.760Z,0
2016-04-03T20:05:49.731Z,0
2016-04-03T20:06:49.718Z,0
2016-04-03T20:07:49.721Z,0
2016-04-03T20:08:49.677Z,0
2016-04-03T20:09:49.664Z,0
2016-04-03T20:10:49.698Z,0
2016-04-03T20:11:49.639Z,0
2016-04-03T20:12:49.609Z,0
2016-04-03T20:13:49.597Z,0
2016-04-03T20:14:49.614Z,0
2016-04-03T20:15:49.586Z,0
2016-04-03T20:16:49.557Z,0
2016-04-03T20:17:49.530Z,0
2016-04-03T20:18:49.516Z,0
2016-04-03T20:19:49.519Z,0
2016-04-03T20:20:49.464Z,0
2016-04-03T20:21:49.452Z,0
2016-04-03T20:22:49.455Z,0
2016-04-03T20:23:49.441Z,0
2016-04-03T20:24:49.491Z,0
2016-04-03T20:25:49.400Z,0
2016-04-03T20:26:49.372Z,0
2016-04-03T20:27:49.358Z,0
2016-04-03T20:28:49.361Z,0
2016-04-03T20:29:49.332Z,0
2016-04-03T20:30:49.304Z,0
2016-04-03T20:31:49.291Z,0
2016-04-03T20:32:49.263Z,0
2016-04-03T20:33:49.282Z,0
2016-04-03T20:34:49.268Z,0
2016-04-03T20:35:49.287Z,0
2016-04-03T20:36:49.210Z,0
2016-04-03T20:37:49.182Z,0
2016-04-03T20:38:49.154Z,0
2016-04-03T20:39:49.172Z,0
2016-04-03T20:40:49.143Z,0
2016-04-03T20:41:49.131Z,0
2016-04-03T20:42:49.087Z,0
2016-04-03T20:43:49.090Z,0
2016-04-03T20:44:49.076Z,0
2016-04-03T20:45:49.048Z,0
2016-04-03T20:46:48.862Z,0
2016-04-03T20:47:49.006Z,0
2016-04-03T20:48:48.993Z,0
2016-04-03T20:49:48.964Z,0
2016-04-03T20:50:48.953Z,0
2016-04-03T20:51:48.939Z,0
2016-04-03T20:52:48.926Z,0
2016-04-03T20:53:48.913Z,0
2016-04-03T20:54:48.916Z,0
2016-04-03T20:55:48.872Z,0
2016-04-03T20:56:48.858Z,0
2016-04-03T20:57:48.830Z,0
2016-04-03T20:58:48.816Z,0
2016-04-03T20:59:48.804Z,0
2016-04-03T21:00:48.775Z,0
2016-04-03T21:01:48.763Z,0
2016-04-03T21:02:48.750Z,0
2016-04-03T21:03:48.768Z,0
2016-04-03T21:04:48.646Z,0
2016-04-03T21:05:48.679Z,0
2016-04-03T21:06:48.667Z,0
2016-04-03T21:07:48.685Z,0
2016-04-03T21:08:48.641Z,0
2016-04-03T21:09:48.675Z,0
2016-04-03T21:10:48.646Z,0
2016-04-03T21:11:48.618Z,0
2016-04-03T21:12:48.589Z,0
2016-04-03T21:13:48.576Z,0
2016-04-03T21:14:48.563Z,0
2016-04-03T21:15:48.566Z,0
2016-04-03T21:16:48.506Z,0
2016-04-03T21:17:48.525Z,0
2016-04-03T21:18:48.512Z,0
2016-04-03T21:19:48.465Z,0
2016-04-03T21:20:48.436Z,0
2016-04-03T21:21:48.439Z,0
2016-04-03T21:22:48.411Z,0
2016-04-03T21:23:48.381Z,0
2016-04-03T21:24:48.384Z,0
2016-04-03T21:25:48.402Z,0
2016-04-03T21:26:48.358Z,0
2016-04-03T21:27:48.330Z,0
2016-04-03T21:28:48.286Z,0
2016-04-03T21:29:48.273Z,0
2016-04-03T21:30:48.275Z,0
2016-04-03T21:31:48.278Z,0
2016-04-03T21:32:48.233Z,0
2016-04-03T21:33:48.190Z,0
2016-04-03T21:34:48.193Z,0
2016-04-03T21:35:48.164Z,0
2016-04-03T21:36:48.151Z,0
2016-04-03T21:37:48.154Z,0
2016-04-03T21:38:48.110Z,0
2016-04-03T21:39:48.096Z,0
2016-04-03T21:40:48.052Z,0
2016-04-03T21:41:48.086Z,0
2016-04-03T21:42:48.073Z,0
2016-04-03T21:43:48.029Z,0
2016-04-03T21:44:48.001Z,0
2016-04-03T21:45:48.004Z,0
2016-04-03T21:46:47.975Z,0
2016-04-03T21:47:47.962Z,0
2016-04-03T21:48:47.933Z,0
2016-04-03T21:49:47.920Z,0
2016-04-03T21:50:47.891Z,0
2016-04-03T21:51:47.878Z,0
2016-04-03T21:52:47.850Z,0
2016-04-03T21:53:47.869Z,0
2016-04-03T21:54:47.855Z,0
2016-04-03T21:55:47.826Z,0
2016-04-03T21:56:47.782Z,0
2016-04-03T21:57:47.785Z,0
2016-04-03T21:58:47.771Z,0
2016-04-03T21:59:47.743Z,0
2016-04-03T22:00:47.698Z,0
2016-04-03T22:01:47.686Z,0
2016-04-03T22:02:47.657Z,0
2016-04-03T22:03:47.692Z,0
2016-04-03T22:04:47.679Z,0
2016-04-03T22:05:47.618Z,0
2016-04-03T22:06:47.606Z,0
2016-04-03T22:07:47.623Z,0
2016-04-03T22:08:47.548Z,0
2016-04-03T22:09:47.848Z,0
2016-04-03T22:10:47.554Z,0
2016-04-03T22:11:47.510Z,0
2016-04-03T22:12:47.481Z,0
2016-04-03T22:13:47.484Z,0
2016-04-03T22:14:47.517Z,0
2016-04-03T22:15:47.442Z,0
2016-04-03T22:16:47.429Z,0
2016-04-03T22:17:47.416Z,0
2016-04-03T22:18:47.450Z,0
2016-04-03T22:19:47.360Z,0
2016-04-03T22:20:47.331Z,0
2016-04-03T22:21:47.318Z,0
2016-04-03T22:22:47.368Z,0
2016-04-03T22:23:47.307Z,0
2016-04-03T22:24:47.283Z,0
2016-04-03T22:25:47.239Z,0
2016-04-03T22:26:47.225Z,0
2016-04-03T22:27:47.245Z,0
2016-04-03T22:28:47.216Z,0
2016-04-03T22:29:47.203Z,0
2016-04-03T22:30:47.174Z,0
2016-04-03T22:31:47.161Z,0
2016-04-03T22:32:47.148Z,0
2016-04-03T22:33:47.354Z,0
2016-04-03T22:34:47.091Z,0
2016-04-03T22:35:47.077Z,0
2016-04-03T22:36:47.066Z,0
2016-04-03T22:37:47.021Z,0
2016-04-03T22:38:47.008Z,0
2016-04-03T22:39:47.058Z,0
2016-04-03T22:40:47.013Z,0
2016-04-03T22:41:46.954Z,0
2016-04-03T22:42:46.941Z,0
2016-04-03T22:43:46.896Z,0
2016-04-03T22:44:46.884Z,0
2016-04-03T22:45:46.886Z,0
2016-04-03T22:46:46.843Z,0
2016-04-03T22:47:46.892Z,0
2016-04-03T22:48:46.848Z,0
2016-04-03T22:49:46.851Z,0
2016-04-03T22:50:46.775Z,0
2016-04-03T22:51:46.778Z,0
2016-04-03T22:52:46.764Z,0
2016-04-03T22:53:46.783Z,0
2016-04-03T22:54:46.754Z,0
2016-04-03T22:55:46.695Z,0
2016-04-03T22:56:46.526Z,0
2016-04-03T22:57:46.670Z,0
2016-04-03T22:58:46.641Z,0
2016-04-03T22:59:46.628Z,0
2016-04-03T23:00:46.615Z,0
2016-04-03T23:01:46.601Z,0
2016-04-03T23:02:46.573Z,0
2016-04-03T23:03:46.561Z,0
2016-04-03T23:04:46.579Z,0
2016-04-03T23:05:46.520Z,0
2016-04-03T23:06:46.490Z,0
2016-04-03T23:07:46.462Z,0
2016-04-03T23:08:46.495Z,0
2016-04-03T23:09:46.452Z,0
2016-04-03T23:10:46.438Z,0
2016-04-03T23:11:46.446Z,0
2016-04-03T23:12:46.403Z,0
2016-04-03T23:13:46.374Z,0
2016-04-03T23:14:46.189Z,0
2016-04-03T23:15:46.363Z,0
2016-04-03T23:16:46.335Z,0
2016-04-03T23:17:46.318Z,0
2016-04-03T23:18:46.320Z,0
2016-04-03T23:19:46.339Z,0
2016-04-03T23:20:46.231Z,0
2016-04-03T23:21:46.220Z,0
2016-04-03T23:22:46.222Z,0
2016-04-03T23:23:46.194Z,0
2016-04-03T23:24:46.149Z,0
2016-04-03T23:25:46.136Z,0
2016-04-03T23:26:46.123Z,0
2016-04-03T23:27:46.057Z,0
2016-04-03T23:28:46.049Z,0
2016-04-03T23:29:46.023Z,0
2016-04-03T23:30:46.000Z,0
2016-04-03T23:31:46.006Z,0
2016-04-03T23:32:45.954Z,0
2016-04-03T23:33:45.922Z,0
2016-04-03T23:34:46.405Z,0
2016-04-03T23:35:45.856Z,0
2016-04-03T23:36:45.855Z,0
2016-04-03T23:37:45.823Z,0
2016-04-03T23:38:45.793Z,0
2016-04-03T23:39:45.779Z,0
2016-04-03T23:40:45.748Z,0
2016-04-03T23:41:45.735Z,0
2016-04-03T23:42:45.736Z,0
2016-04-03T23:43:45.722Z,0
2016-04-03T23:44:45.724Z,0
2016-04-03T23:45:45.695Z,0
2016-04-03T23:46:45.666Z,0
2016-04-03T23:47:45.621Z,0
2016-04-03T23:48:45.608Z,0
2016-04-03T23:49:45.720Z,0
2016-04-03T23:50:45.598Z,0
2016-04-03T23:51:45.569Z,0
2016-04-03T23:52:45.541Z,0
2016-04-03T23:53:45.527Z,0
2016-04-03T23:54:45.546Z,0
2016-04-03T23:55:45.471Z,0
2016-04-03T23:56:45.457Z,0
2016-04-03T23:57:45.429Z,0
2016-04-03T23:58:45.431Z,0
2016-04-03T23:59:45.435Z,0
